Time;durP1;ratioP1;P1;durP2;ratioP2;P2;SDS_P1;SDS_P2;PMS_P1;PMS_P2;Temp;Humidity;BMP_temperature;BMP_pressure;BME280_temperature;BME280_humidity;BME280_pressure;Samples;Min_cycle;Max_cycle;Signal;HPM_P1;HPM_P2
2022/12/20 00:00:26;;;;;;;4.78;3.72;;;9.30;99.90;;;;;;5096070;28;20104;-64
2022/12/20 00:02:52;;;;;;;7.97;4.63;;;9.30;99.90;;;;;;5096623;28;20042;-65
2022/12/20 00:05:17;;;;;;;6.85;4.35;;;9.30;99.90;;;;;;5101377;28;20039;-67
2022/12/20 00:07:43;;;;;;;4.97;4.32;;;9.30;99.90;;;;;;5100546;28;20036;-65
2022/12/20 00:10:09;;;;;;;8.52;4.25;;;9.30;99.90;;;;;;5076864;28;20829;-65
2022/12/20 00:12:34;;;;;;;6.85;4.32;;;9.20;99.90;;;;;;5105057;28;20032;-65
2022/12/20 00:15:00;;;;;;;6.03;4.15;;;9.20;99.90;;;;;;5098215;28;20055;-64
2022/12/20 00:17:25;;;;;;;7.60;4.18;;;9.20;99.90;;;;;;5098803;28;21344;-65
2022/12/20 00:19:51;;;;;;;9.20;4.80;;;9.20;99.90;;;;;;5105386;28;20044;-65
2022/12/20 00:22:16;;;;;;;7.15;4.93;;;9.20;99.90;;;;;;5101462;28;20109;-65
2022/12/20 00:24:42;;;;;;;8.30;4.05;;;9.20;99.90;;;;;;5079379;28;20048;-65
2022/12/20 00:27:08;;;;;;;8.68;4.15;;;9.30;99.90;;;;;;5098550;28;20096;-64
2022/12/20 00:29:34;;;;;;;7.10;4.60;;;9.20;99.90;;;;;;5097928;28;20496;-65
2022/12/20 00:31:59;;;;;;;5.32;3.85;;;9.30;99.90;;;;;;5081012;28;20032;-66
2022/12/20 00:34:25;;;;;;;7.05;4.03;;;9.40;99.90;;;;;;5101773;28;20096;-65
2022/12/20 00:36:50;;;;;;;6.70;3.90;;;9.30;99.90;;;;;;5101040;28;20086;-65
2022/12/20 00:39:16;;;;;;;6.55;4.47;;;9.40;99.90;;;;;;5080108;28;20040;-65
2022/12/20 00:41:42;;;;;;;6.15;3.97;;;9.40;99.90;;;;;;5104557;28;20079;-65
2022/12/20 00:44:08;;;;;;;6.53;3.80;;;9.40;99.90;;;;;;5099465;28;20048;-65
2022/12/20 00:46:34;;;;;;;7.82;3.78;;;9.50;99.90;;;;;;5101976;28;20034;-64
2022/12/20 00:49:00;;;;;;;6.90;3.70;;;9.40;99.90;;;;;;5099842;28;20058;-66
2022/12/20 00:51:28;;;;;;;5.45;3.95;;;9.50;99.90;;;;;;5096550;28;20039;-65
2022/12/20 00:53:54;;;;;;;5.00;3.55;;;9.60;99.90;;;;;;5101378;28;20612;-64
2022/12/20 00:56:19;;;;;;;7.10;3.78;;;9.50;99.90;;;;;;5098928;28;20039;-66
2022/12/20 00:58:45;;;;;;;6.05;4.15;;;9.50;99.90;;;;;;5102832;28;20027;-66
2022/12/20 01:01:15;;;;;;;6.05;3.55;;;9.50;99.90;;;;;;5101844;28;20096;-64
2022/12/20 01:03:41;;;;;;;4.97;3.40;;;9.50;99.90;;;;;;5108960;28;20547;-66
2022/12/20 01:06:07;;;;;;;7.15;3.90;;;9.50;99.90;;;;;;5084701;28;20083;-66
2022/12/20 01:08:32;;;;;;;8.77;3.95;;;9.60;99.90;;;;;;5108298;28;20043;-67
2022/12/20 01:11:34;;;;;;;6.50;3.55;;;9.50;99.90;;;;;;5084737;28;20046;-64
2022/12/20 01:14:12;;;;;;;4.75;3.33;;;9.50;99.90;;;;;;5079761;28;20052;-66
2022/12/20 01:16:40;;;;;;;6.82;3.60;;;9.50;99.90;;;;;;5082859;28;20060;-65
2022/12/20 01:19:08;;;;;;;6.03;3.80;;;9.50;99.90;;;;;;5089395;28;20083;-65
2022/12/20 01:21:34;;;;;;;5.10;3.40;;;9.50;99.90;;;;;;5099079;28;20043;-67
2022/12/20 01:23:59;;;;;;;5.95;3.75;;;9.50;99.90;;;;;;5100589;28;20039;-65
2022/12/20 01:26:27;;;;;;;5.32;3.35;;;9.60;99.90;;;;;;5099898;28;20040;-66
2022/12/20 01:28:58;;;;;;;5.70;3.67;;;9.60;99.90;;;;;;5099876;28;20125;-65
2022/12/20 01:31:23;;;;;;;;;;;9.40;99.90;;;;;;5098603;28;20061;-65
2022/12/20 01:33:51;;;;;;;6.20;3.22;;;9.50;99.90;;;;;;5099864;28;19916;-66
2022/12/20 01:36:20;;;;;;;6.50;3.38;;;9.40;99.90;;;;;;5075779;28;20028;-65
2022/12/20 01:38:46;;;;;;;4.75;3.30;;;9.40;99.90;;;;;;5099613;28;20127;-66
2022/12/20 01:41:18;;;;;;;5.15;3.80;;;9.40;99.90;;;;;;5098757;28;20567;-65
2022/12/20 01:43:59;;;;;;;6.68;3.63;;;9.40;99.90;;;;;;5097299;28;20053;-65
2022/12/20 01:46:27;;;;;;;7.32;3.60;;;9.40;99.90;;;;;;5099290;28;20036;-64
2022/12/20 01:48:55;;;;;;;5.70;3.60;;;9.30;99.90;;;;;;5095474;28;20035;-66
2022/12/20 01:51:22;;;;;;;5.97;3.58;;;9.30;99.90;;;;;;5080129;28;20759;-66
2022/12/20 01:53:53;;;;;;;6.47;3.67;;;9.20;99.90;;;;;;5096115;28;20479;-68
2022/12/20 01:56:18;;;;;;;5.63;3.85;;;9.30;99.90;;;;;;5093669;28;20028;-67
2022/12/20 01:58:46;;;;;;;5.85;3.38;;;9.20;99.90;;;;;;5098028;28;20122;-67
2022/12/20 02:01:12;;;;;;;5.78;3.55;;;9.30;99.90;;;;;;5104890;28;20597;-65
2022/12/20 02:03:38;;;;;;;6.70;4.38;;;9.20;99.90;;;;;;5084787;28;20051;-65
2022/12/20 02:06:19;;;;;;;4.90;3.70;;;9.10;99.90;;;;;;5064793;28;20048;-65
2022/12/20 02:08:47;;;;;;;7.50;3.83;;;9.10;99.90;;;;;;5101277;28;20062;-65
2022/12/20 02:11:22;;;;;;;6.07;3.83;;;9.20;99.90;;;;;;5083497;28;20044;-66
2022/12/20 02:14:15;;;;;;;5.65;3.78;;;9.00;99.90;;;;;;5101034;28;20034;-66
2022/12/20 02:17:19;;;;;;;6.53;3.60;;;9.10;99.90;;;;;;5098750;28;20071;-65
2022/12/20 02:20:20;;;;;;;7.20;3.45;;;9.10;99.90;;;;;;5094114;28;20130;-66
2022/12/20 02:23:24;;;;;;;5.18;3.70;;;9.20;99.90;;;;;;5101124;28;20046;-66
2022/12/20 02:26:09;;;;;;;6.22;3.92;;;9.20;99.90;;;;;;5103358;28;20040;-65
2022/12/20 02:29:02;;;;;;;4.95;3.58;;;9.20;99.90;;;;;;5107192;28;20861;-65
2022/12/20 02:31:54;;;;;;;5.97;3.65;;;9.20;99.90;;;;;;5085322;28;20043;-65
2022/12/20 02:34:23;;;;;;;5.00;3.42;;;9.30;99.90;;;;;;5105044;28;20046;-66
2022/12/20 02:36:49;;;;;;;5.17;3.57;;;9.30;99.90;;;;;;5092771;28;20032;-66
2022/12/20 02:39:15;;;;;;;6.28;3.85;;;9.20;99.90;;;;;;5105974;28;20035;-64
2022/12/20 02:41:46;;;;;;;5.30;3.42;;;9.30;99.90;;;;;;5103278;28;21007;-67
2022/12/20 02:47:04;;;;;;;6.43;3.45;;;9.30;99.90;;;;;;5103716;28;20051;-67
2022/12/20 02:49:33;;;;;;;4.70;3.40;;;9.20;99.90;;;;;;5102696;28;20035;-66
2022/12/20 02:52:02;;;;;;;4.70;3.60;;;9.30;99.90;;;;;;5083942;28;20058;-65
2022/12/20 02:54:28;;;;;;;5.15;3.47;;;9.10;99.90;;;;;;5084442;28;20398;-66
2022/12/20 02:57:04;;;;;;;5.10;3.65;;;9.10;99.90;;;;;;5109148;28;20035;-64
2022/12/20 02:59:41;;;;;;;7.28;3.85;;;9.00;99.90;;;;;;5104846;28;20043;-65
2022/12/20 03:02:07;;;;;;;6.63;3.92;;;9.00;99.90;;;;;;5111608;28;20039;-67
2022/12/20 03:04:37;;;;;;;5.30;3.78;;;9.00;99.90;;;;;;5107497;28;20055;-67
2022/12/20 03:07:12;;;;;;;5.88;3.92;;;8.80;99.90;;;;;;5100922;28;20040;-64
2022/12/20 03:09:40;;;;;;;7.63;4.00;;;8.80;99.90;;;;;;5103858;28;20119;-65
2022/12/20 03:12:07;;;;;;;8.93;4.47;;;8.60;99.90;;;;;;5082827;28;20039;-65
2022/12/20 03:14:33;;;;;;;7.72;4.63;;;8.50;99.90;;;;;;5088910;28;20725;-66
2022/12/20 03:16:59;;;;;;;9.02;5.05;;;8.40;99.90;;;;;;5102539;28;20052;-65
2022/12/20 03:19:24;;;;;;;6.40;4.60;;;8.40;99.90;;;;;;5069584;28;20045;-65
2022/12/20 03:21:50;;;;;;;8.15;4.82;;;8.50;99.90;;;;;;5102080;28;20557;-66
2022/12/20 03:24:16;;;;;;;9.18;4.35;;;8.30;99.90;;;;;;5082562;28;20472;-65
2022/12/20 03:26:42;;;;;;;9.82;4.97;;;8.30;99.90;;;;;;5081704;28;20044;-65
2022/12/20 03:29:08;;;;;;;8.75;4.53;;;8.30;99.90;;;;;;5086166;28;20529;-66
2022/12/20 03:31:33;;;;;;;9.27;4.55;;;8.30;99.90;;;;;;5092104;28;20046;-67
2022/12/20 03:33:59;;;;;;;9.98;4.85;;;8.50;99.90;;;;;;5098964;28;20049;-66
2022/12/20 03:36:25;;;;;;;9.48;4.60;;;8.30;99.90;;;;;;5076588;28;20067;-66
2022/12/20 03:38:52;;;;;;;8.40;4.72;;;8.50;99.90;;;;;;5101565;28;20035;-66
2022/12/20 03:41:18;;;;;;;8.50;4.55;;;8.60;99.90;;;;;;5103850;28;20101;-66
2022/12/20 03:43:44;;;;;;;6.95;4.90;;;8.60;99.90;;;;;;5111520;28;20074;-68
2022/12/20 03:46:10;;;;;;;8.63;4.90;;;8.50;99.90;;;;;;5110867;28;20440;-67
2022/12/20 03:48:35;;;;;;;9.85;5.20;;;8.60;99.90;;;;;;5087425;28;20349;-66
2022/12/20 03:51:01;;;;;;;10.52;4.90;;;8.40;99.90;;;;;;5105760;28;20036;-65
2022/12/20 03:53:26;;;;;;;9.55;5.40;;;8.60;99.90;;;;;;5107935;28;20044;-66
2022/12/20 03:55:52;;;;;;;8.60;4.72;;;8.40;99.90;;;;;;5099226;28;20487;-65
2022/12/20 03:58:17;;;;;;;8.80;5.00;;;8.60;99.90;;;;;;5090543;28;20028;-65
2022/12/20 04:00:43;;;;;;;10.95;5.38;;;8.50;99.90;;;;;;5102472;28;20547;-65
2022/12/20 04:03:08;;;;;;;7.85;4.90;;;8.40;99.90;;;;;;5108659;28;20455;-66
2022/12/20 04:05:34;;;;;;;7.05;5.10;;;8.40;99.90;;;;;;5100862;28;20070;-64
2022/12/20 04:08:00;;;;;;;7.60;5.03;;;8.40;99.90;;;;;;5102274;28;20100;-66
2022/12/20 04:10:25;;;;;;;10.10;4.97;;;8.60;99.90;;;;;;5105746;28;20044;-67
2022/12/20 04:12:51;;;;;;;8.73;5.05;;;8.40;99.90;;;;;;5086203;28;20039;-64
2022/12/20 04:15:16;;;;;;;9.55;5.68;;;8.50;99.90;;;;;;5098429;28;20044;-64
2022/12/20 04:17:42;;;;;;;10.80;5.10;;;8.60;99.90;;;;;;5111234;28;20032;-66
2022/12/20 04:20:18;;;;;;;10.63;5.28;;;8.60;99.90;;;;;;5097920;28;20081;-65
2022/12/20 04:22:49;;;;;;;8.68;4.82;;;8.60;99.90;;;;;;5102354;28;20047;-65
2022/12/20 04:25:16;;;;;;;9.55;5.07;;;8.70;99.90;;;;;;5102419;28;20028;-66
2022/12/20 04:27:42;;;;;;;9.45;5.13;;;8.60;99.90;;;;;;5108593;28;20148;-66
2022/12/20 04:30:09;;;;;;;8.32;5.00;;;8.60;99.90;;;;;;5098039;28;20114;-64
2022/12/20 04:32:35;;;;;;;8.55;5.38;;;8.60;99.90;;;;;;5083190;28;20036;-67
2022/12/20 04:35:00;;;;;;;9.30;6.03;;;8.50;99.90;;;;;;5105863;28;20100;-64
2022/12/20 04:37:26;;;;;;;9.13;5.28;;;8.60;99.90;;;;;;5104190;28;20101;-65
2022/12/20 04:39:52;;;;;;;9.70;5.57;;;8.60;99.90;;;;;;5101920;28;20043;-69
2022/12/20 04:42:17;;;;;;;9.00;5.05;;;8.60;99.90;;;;;;5081345;28;20045;-66
2022/12/20 04:44:43;;;;;;;10.65;5.25;;;8.70;99.90;;;;;;5101421;28;20035;-65
2022/12/20 04:47:09;;;;;;;7.57;5.13;;;8.70;99.90;;;;;;5098551;28;20122;-64
2022/12/20 04:49:34;;;;;;;8.73;5.78;;;8.70;99.90;;;;;;5098238;28;20481;-67
2022/12/20 04:53:46;;;;;;;10.82;5.60;;;8.50;99.90;;;;;;5098602;28;20092;-65
2022/12/20 04:54:46;;;;;;;8.32;5.03;;;8.60;99.90;;;;;;5100319;28;20043;-66
2022/12/20 04:57:12;;;;;;;9.15;5.15;;;8.70;99.90;;;;;;5098760;28;20476;-67
2022/12/20 04:59:38;;;;;;;8.73;5.30;;;8.70;99.90;;;;;;5084768;28;20050;-67
2022/12/20 05:02:03;;;;;;;9.00;5.43;;;8.60;99.90;;;;;;5081094;28;20043;-65
2022/12/20 05:04:29;;;;;;;11.30;5.40;;;8.70;99.90;;;;;;5106123;28;20043;-65
2022/12/20 05:06:54;;;;;;;10.88;5.13;;;8.70;99.90;;;;;;5102559;28;20038;-64
2022/12/20 05:09:20;;;;;;;7.53;5.20;;;8.60;99.90;;;;;;5098817;28;20113;-65
2022/12/20 05:11:45;;;;;;;7.18;4.97;;;8.80;99.90;;;;;;5096033;28;20165;-65
2022/12/20 05:14:11;;;;;;;8.77;5.50;;;8.80;99.90;;;;;;5092547;28;20039;-66
2022/12/20 05:16:37;;;;;;;9.30;5.53;;;8.80;99.90;;;;;;5100549;28;20403;-66
2022/12/20 05:19:03;;;;;;;8.57;5.43;;;8.90;99.90;;;;;;5076539;28;20483;-65
2022/12/20 05:26:57;;;;;;;10.75;5.40;;;8.70;99.90;;;;;;5087150;28;20068;-65
2022/12/20 05:29:23;;;;;;;8.52;5.35;;;8.80;99.90;;;;;;5101241;28;20071;-67
2022/12/20 05:31:48;;;;;;;11.73;5.05;;;8.80;99.90;;;;;;5088760;28;20433;-67
2022/12/20 05:34:14;;;;;;;7.50;5.22;;;9.00;99.90;;;;;;5093232;28;20059;-67
2022/12/20 05:36:40;;;;;;;9.20;5.00;;;8.90;99.90;;;;;;5099389;28;20038;-65
2022/12/20 05:39:05;;;;;;;7.43;4.45;;;8.90;99.90;;;;;;5100159;28;20032;-64
2022/12/20 05:41:31;;;;;;;7.40;5.18;;;9.00;99.90;;;;;;5104910;28;20118;-65
2022/12/20 05:43:57;;;;;;;7.32;4.40;;;8.90;99.90;;;;;;5107299;28;20046;-65
2022/12/20 05:46:22;;;;;;;6.75;4.78;;;9.00;99.90;;;;;;5109533;28;20069;-67
2022/12/20 05:48:48;;;;;;;9.35;4.75;;;9.00;99.90;;;;;;5107340;28;20084;-65
2022/12/20 05:51:13;;;;;;;7.07;4.53;;;9.10;99.90;;;;;;5090838;28;20068;-64
2022/12/20 05:53:39;;;;;;;9.10;4.35;;;9.00;99.90;;;;;;5099607;28;20582;-67
2022/12/20 05:56:04;;;;;;;7.13;4.40;;;9.00;99.90;;;;;;5101050;28;20035;-65
2022/12/20 05:58:30;;;;;;;6.70;4.20;;;9.10;99.90;;;;;;5100493;28;20115;-65
2022/12/20 06:00:58;;;;;;;9.23;4.57;;;9.20;99.90;;;;;;5082394;28;20069;-66
2022/12/20 06:03:24;;;;;;;5.47;4.22;;;9.10;99.90;;;;;;5104436;28;20051;-65
2022/12/20 06:05:49;;;;;;;8.00;3.90;;;9.30;99.90;;;;;;5102990;28;20036;-64
2022/12/20 06:08:15;;;;;;;7.57;4.45;;;9.30;99.90;;;;;;5096615;28;20605;-67
2022/12/20 06:10:41;;;;;;;6.63;4.55;;;9.20;99.90;;;;;;5103031;28;20548;-67
2022/12/20 06:13:07;;;;;;;7.15;4.28;;;9.30;99.90;;;;;;5099745;28;20059;-67
2022/12/20 06:15:32;;;;;;;7.25;4.00;;;9.20;99.90;;;;;;5080238;28;20392;-67
2022/12/20 06:17:58;;;;;;;7.68;3.92;;;9.10;99.90;;;;;;5109403;28;20051;-65
2022/12/20 06:20:24;;;;;;;6.82;3.90;;;9.20;99.90;;;;;;5102597;28;20118;-66
2022/12/20 06:22:49;;;;;;;7.80;3.80;;;9.20;99.90;;;;;;5098418;28;20082;-65
2022/12/20 06:25:15;;;;;;;6.70;4.05;;;9.20;99.90;;;;;;5096031;28;20131;-65
2022/12/20 06:27:41;;;;;;;7.20;4.07;;;9.20;99.90;;;;;;5106742;28;20027;-64
2022/12/20 06:30:08;;;;;;;6.47;4.00;;;9.30;99.90;;;;;;5097109;28;20036;-65
2022/12/20 06:32:34;;;;;;;5.50;4.10;;;9.30;99.90;;;;;;5095198;28;20333;-64
2022/12/20 06:34:59;;;;;;;8.10;4.18;;;9.50;99.90;;;;;;5095466;28;20054;-65
2022/12/20 06:37:25;;;;;;;10.35;4.40;;;9.40;99.90;;;;;;5095709;28;20040;-67
2022/12/20 06:39:50;;;;;;;8.48;4.60;;;9.40;99.90;;;;;;5097380;28;20127;-65
2022/12/20 06:42:16;;;;;;;8.95;4.38;;;9.50;99.90;;;;;;5093712;28;20138;-64
2022/12/20 06:44:42;;;;;;;9.25;3.72;;;9.40;99.90;;;;;;5098426;28;20491;-65
2022/12/20 06:47:07;;;;;;;8.13;4.53;;;9.50;99.90;;;;;;5095391;28;21013;-66
2022/12/20 06:49:33;;;;;;;7.43;4.45;;;9.50;99.90;;;;;;5080311;28;20096;-66
2022/12/20 06:51:58;;;;;;;7.68;4.75;;;9.40;99.90;;;;;;5098752;28;20035;-65
2022/12/20 06:54:24;;;;;;;7.32;4.40;;;9.40;99.90;;;;;;5103018;28;20027;-66
2022/12/20 06:56:49;;;;;;;7.85;4.78;;;9.30;99.90;;;;;;5078352;28;20044;-66
2022/12/20 06:59:15;;;;;;;9.15;5.55;;;9.30;99.90;;;;;;5083134;28;20044;-65
2022/12/20 07:01:41;;;;;;;10.93;5.85;;;9.20;99.90;;;;;;5097302;28;20040;-66
2022/12/20 07:04:06;;;;;;;9.10;5.15;;;9.20;99.90;;;;;;5095116;28;20038;-64
2022/12/20 07:06:32;;;;;;;10.43;5.40;;;9.30;99.90;;;;;;5098936;28;20068;-64
2022/12/20 07:08:58;;;;;;;7.95;5.25;;;9.30;99.90;;;;;;5096718;28;20036;-65
2022/12/20 07:11:23;;;;;;;9.90;6.03;;;9.30;99.90;;;;;;5104199;28;20036;-65
2022/12/20 07:13:53;;;;;;;11.18;5.95;;;9.30;99.90;;;;;;5100279;28;20059;-64
2022/12/20 07:16:18;;;;;;;10.82;6.30;;;9.20;99.90;;;;;;5102343;28;20384;-65
2022/12/20 07:18:47;;;;;;;10.50;6.40;;;9.30;99.90;;;;;;5082617;28;20040;-66
2022/12/20 07:21:15;;;;;;;11.07;6.22;;;9.30;99.90;;;;;;5069104;28;20043;-64
2022/12/20 07:23:41;;;;;;;10.82;6.57;;;9.20;99.90;;;;;;5099819;28;20077;-64
2022/12/20 07:26:06;;;;;;;11.25;6.38;;;9.20;99.90;;;;;;5109952;28;20043;-65
2022/12/20 07:28:32;;;;;;;11.63;6.05;;;9.20;99.90;;;;;;5103773;28;20066;-66
2022/12/20 07:31:01;;;;;;;12.13;7.32;;;9.20;99.90;;;;;;5082686;28;20075;-65
2022/12/20 07:33:28;;;;;;;13.02;6.68;;;9.20;99.90;;;;;;5098770;28;20040;-65
2022/12/20 07:36:03;;;;;;;12.88;6.97;;;9.20;99.90;;;;;;5103743;28;20063;-65
2022/12/20 07:38:29;;;;;;;12.55;6.97;;;9.20;99.90;;;;;;5105530;28;20150;-65
2022/12/20 07:40:55;;;;;;;12.63;7.38;;;9.20;99.90;;;;;;5089073;28;20131;-66
2022/12/20 07:43:20;;;;;;;14.85;7.22;;;9.20;99.90;;;;;;5091176;28;20108;-65
2022/12/20 07:45:46;;;;;;;10.77;6.82;;;9.30;99.90;;;;;;5112924;28;20059;-66
2022/12/20 07:48:12;;;;;;;14.63;7.40;;;9.20;99.90;;;;;;5107224;28;20467;-64
2022/12/20 07:50:40;;;;;;;12.25;7.05;;;9.20;99.90;;;;;;5093948;28;20040;-64
2022/12/20 07:53:07;;;;;;;12.20;7.43;;;9.20;99.90;;;;;;5104594;28;20031;-65
2022/12/20 07:55:35;;;;;;;13.63;8.10;;;9.20;99.90;;;;;;5105761;28;20499;-65
2022/12/20 07:58:05;;;;;;;12.13;7.05;;;9.20;99.90;;;;;;5095093;28;20036;-65
2022/12/20 08:00:31;;;;;;;13.23;8.07;;;9.20;99.90;;;;;;5102119;28;20039;-65
2022/12/20 08:03:11;;;;;;;11.88;7.60;;;9.10;99.90;;;;;;5099767;28;20040;-64
2022/12/20 08:05:40;;;;;;;13.52;8.05;;;9.20;99.90;;;;;;5095195;28;20077;-64
2022/12/20 08:08:07;;;;;;;13.88;7.90;;;9.20;99.90;;;;;;5108661;28;20127;-64
2022/12/20 08:10:33;;;;;;;11.40;7.93;;;9.20;99.90;;;;;;5109900;28;20081;-65
2022/12/20 08:12:59;;;;;;;12.10;7.60;;;9.30;99.90;;;;;;5105786;28;20127;-64
2022/12/20 08:15:26;;;;;;;11.48;7.07;;;9.20;99.90;;;;;;5110126;28;20126;-66
2022/12/20 08:17:52;;;;;;;10.40;7.25;;;9.30;99.90;;;;;;5089638;28;20101;-65
2022/12/20 08:20:18;;;;;;;12.10;7.10;;;9.30;99.90;;;;;;5098638;28;20040;-64
2022/12/20 08:22:44;;;;;;;13.15;6.97;;;9.30;99.90;;;;;;5099070;28;20092;-67
2022/12/20 08:25:10;;;;;;;9.32;6.22;;;9.30;99.90;;;;;;5108206;28;20032;-64
2022/12/20 08:27:36;;;;;;;11.98;6.82;;;9.30;99.90;;;;;;5094903;28;20038;-64
2022/12/20 08:30:02;;;;;;;15.85;6.50;;;9.40;99.90;;;;;;5103888;28;20503;-65
2022/12/20 08:32:28;;;;;;;9.77;5.65;;;9.50;99.90;;;;;;5085001;28;20035;-65
2022/12/20 08:34:54;;;;;;;13.70;6.28;;;9.40;99.90;;;;;;5095433;28;20060;-64
2022/12/20 08:37:19;;;;;;;8.75;5.93;;;9.40;99.90;;;;;;5102571;28;20058;-66
2022/12/20 08:39:45;;;;;;;8.77;6.05;;;9.40;99.90;;;;;;5099275;28;20040;-65
2022/12/20 08:42:11;;;;;;;8.68;5.53;;;9.40;99.90;;;;;;5097761;28;20043;-65
2022/12/20 08:44:37;;;;;;;6.88;5.00;;;9.40;99.90;;;;;;5094101;28;20046;-64
2022/12/20 08:47:02;;;;;;;8.40;5.18;;;9.40;99.90;;;;;;5102609;28;20039;-64
2022/12/20 08:49:28;;;;;;;10.60;5.38;;;9.30;99.90;;;;;;5098286;28;20057;-65
2022/12/20 08:51:53;;;;;;;6.82;4.82;;;9.30;99.90;;;;;;5098705;28;20036;-64
2022/12/20 08:54:19;;;;;;;9.35;5.28;;;9.40;99.90;;;;;;5102135;28;20040;-64
2022/12/20 08:56:44;;;;;;;9.65;5.15;;;9.30;99.90;;;;;;5101957;28;20043;-64
2022/12/20 08:59:10;;;;;;;7.72;4.53;;;9.40;99.90;;;;;;5102638;28;20040;-66
2022/12/20 09:01:36;;;;;;;8.50;5.03;;;9.30;99.90;;;;;;5102528;28;20036;-65
2022/12/20 09:04:02;;;;;;;7.72;4.50;;;9.30;99.90;;;;;;5084685;28;20232;-66
2022/12/20 09:06:28;;;;;;;7.43;4.30;;;9.30;99.90;;;;;;5100347;28;20050;-64
2022/12/20 09:08:54;;;;;;;6.50;4.25;;;9.30;99.90;;;;;;5093727;28;20065;-64
2022/12/20 09:11:24;;;;;;;6.13;4.20;;;9.40;99.90;;;;;;5097653;28;20123;-65
2022/12/20 09:13:51;;;;;;;8.43;4.68;;;9.40;99.90;;;;;;5083454;28;20062;-64
2022/12/20 09:16:20;;;;;;;6.75;4.53;;;9.40;99.90;;;;;;5098464;28;20655;-64
2022/12/20 09:18:51;;;;;;;6.90;3.97;;;9.40;99.90;;;;;;5097153;28;20039;-64
2022/12/20 09:21:17;;;;;;;6.97;4.90;;;9.40;99.90;;;;;;5096865;28;20039;-64
2022/12/20 09:23:43;;;;;;;7.47;4.30;;;9.50;99.90;;;;;;5102197;28;20032;-65
2022/12/20 09:26:13;;;;;;;6.53;3.92;;;9.50;99.90;;;;;;5103878;28;20562;-64
2022/12/20 09:28:40;;;;;;;6.63;4.15;;;9.60;99.90;;;;;;5101907;28;20039;-65
2022/12/20 09:31:09;;;;;;;8.00;4.22;;;9.60;99.90;;;;;;5099079;28;20048;-65
2022/12/20 09:33:35;;;;;;;5.63;3.83;;;9.60;99.90;;;;;;5098521;28;20032;-64
2022/12/20 09:36:01;;;;;;;6.15;4.15;;;9.60;99.90;;;;;;5090866;28;20361;-65
2022/12/20 09:38:28;;;;;;;6.40;4.43;;;9.50;99.90;;;;;;5100676;28;20036;-67
2022/12/20 09:41:02;;;;;;;6.82;4.38;;;9.50;99.90;;;;;;5100820;28;20048;-65
2022/12/20 09:43:29;;;;;;;6.78;4.13;;;9.60;99.90;;;;;;5081227;28;20055;-64
2022/12/20 09:45:58;;;;;;;6.03;4.15;;;9.60;99.90;;;;;;5097054;28;20046;-64
2022/12/20 09:48:37;;;;;;;9.15;4.10;;;9.60;99.90;;;;;;5106925;28;20089;-63
2022/12/20 09:51:09;;;;;;;7.13;4.63;;;9.80;99.90;;;;;;5093846;28;20044;-67
2022/12/20 09:54:02;;;;;;;6.22;4.07;;;9.70;99.90;;;;;;5103063;28;20077;-64
2022/12/20 09:56:33;;;;;;;5.20;3.78;;;9.60;99.90;;;;;;5103621;28;20039;-64
2022/12/20 09:59:10;;;;;;;6.38;4.07;;;9.80;99.90;;;;;;5091929;28;20080;-63
2022/12/20 10:01:37;;;;;;;5.38;4.07;;;9.60;99.90;;;;;;5096903;28;20043;-65
2022/12/20 10:04:06;;;;;;;7.00;3.97;;;9.70;99.90;;;;;;5084072;28;20085;-63
2022/12/20 10:06:59;;;;;;;8.77;4.18;;;9.80;99.90;;;;;;5076168;28;20035;-64
2022/12/20 10:09:59;;;;;;;6.60;4.13;;;9.60;99.90;;;;;;5102268;28;20059;-64
2022/12/20 10:12:48;;;;;;;7.75;4.28;;;9.60;99.90;;;;;;5096998;28;20051;-65
2022/12/20 10:15:14;;;;;;;6.40;4.22;;;9.50;99.90;;;;;;5099107;28;20043;-66
2022/12/20 10:17:59;;;;;;;8.13;4.03;;;9.50;99.90;;;;;;5093210;28;20035;-63
2022/12/20 10:20:43;;;;;;;5.60;3.58;;;9.50;99.90;;;;;;5077689;28;20039;-63
2022/12/20 10:23:31;;;;;;;9.23;4.65;;;9.40;99.90;;;;;;5092437;28;20046;-67
2022/12/20 10:25:57;;;;;;;7.97;4.47;;;9.40;99.90;;;;;;5079958;28;20044;-66
2022/12/20 10:28:30;;;;;;;8.25;4.25;;;9.40;99.90;;;;;;5097453;28;20089;-65
2022/12/20 10:31:06;;;;;;;5.93;4.10;;;9.40;99.90;;;;;;5101580;28;20047;-65
2022/12/20 10:33:32;;;;;;;8.57;4.68;;;9.30;99.90;;;;;;5099812;28;20372;-64
2022/12/20 10:36:36;;;;;;;6.82;4.60;;;9.30;99.90;;;;;;5101467;28;20119;-67
2022/12/20 10:39:08;;;;;;;8.52;4.82;;;9.30;99.90;;;;;;5011159;28;21445;-64
2022/12/20 10:41:39;;;;;;;9.93;4.70;;;9.20;99.90;;;;;;5003296;28;20041;-66
2022/12/20 10:44:28;;;;;;;8.63;4.50;;;9.20;99.90;;;;;;5043812;28;20050;-67
2022/12/20 10:46:56;;;;;;;8.60;4.55;;;9.20;99.90;;;;;;5101340;28;20356;-66
2022/12/20 10:49:36;;;;;;;11.65;5.00;;;9.20;99.90;;;;;;5088474;28;20035;-66
2022/12/20 10:52:06;;;;;;;9.98;5.47;;;9.20;99.90;;;;;;5086615;28;20079;-66
2022/12/20 10:54:43;;;;;;;9.23;5.22;;;9.20;99.90;;;;;;5106691;28;20097;-68
2022/12/20 10:57:26;;;;;;;11.75;5.10;;;9.20;99.90;;;;;;5105351;28;20130;-66
2022/12/20 10:59:57;;;;;;;11.63;5.53;;;9.20;99.90;;;;;;5103956;28;20032;-67
2022/12/20 11:02:25;;;;;;;10.60;4.68;;;9.30;99.90;;;;;;5099196;28;20475;-65
2022/12/20 11:05:19;;;;;;;11.43;5.38;;;9.40;99.90;;;;;;5094994;28;20075;-66
2022/12/20 11:07:54;;;;;;;8.95;5.22;;;9.30;99.90;;;;;;5100840;28;20130;-64
2022/12/20 11:10:22;;;;;;;11.57;5.65;;;9.30;99.90;;;;;;5111782;28;20558;-65
2022/12/20 11:12:59;;;;;;;9.23;5.50;;;9.30;99.90;;;;;;5109270;28;20067;-65
2022/12/20 11:15:30;;;;;;;8.27;5.40;;;9.40;99.90;;;;;;5112471;28;20044;-65
2022/12/20 11:18:12;;;;;;;7.40;5.43;;;9.40;99.90;;;;;;5113071;28;20111;-64
2022/12/20 11:20:50;;;;;;;7.70;5.32;;;9.40;99.90;;;;;;5110174;28;20027;-65
2022/12/20 11:23:40;;;;;;;12.02;5.60;;;9.40;99.90;;;;;;5111432;28;20388;-65
2022/12/20 11:26:27;;;;;;;11.60;5.55;;;9.40;99.90;;;;;;5107020;28;20084;-66
2022/12/20 11:29:06;;;;;;;9.38;5.65;;;9.50;99.90;;;;;;5107452;28;20093;-65
2022/12/20 11:31:56;;;;;;;9.60;5.63;;;9.50;99.90;;;;;;5108207;28;20078;-65
2022/12/20 11:34:42;;;;;;;9.23;5.80;;;9.50;99.90;;;;;;5109250;28;20035;-65
2022/12/20 11:37:23;;;;;;;10.25;5.45;;;9.50;99.90;;;;;;5088014;28;20040;-64
2022/12/20 11:40:10;;;;;;;9.00;5.25;;;9.50;99.90;;;;;;5096498;28;20483;-65
2022/12/20 11:43:14;;;;;;;8.65;5.35;;;9.50;99.90;;;;;;5100675;28;20090;-64
2022/12/20 11:46:15;;;;;;;9.07;5.72;;;9.50;99.90;;;;;;5098594;28;20039;-65
2022/12/20 11:48:49;;;;;;;;;;;9.60;99.90;;;;;;5106359;28;20050;-64
2022/12/20 11:51:31;;;;;;;7.90;5.00;;;9.60;99.90;;;;;;5098993;28;19920;-65
2022/12/20 11:54:04;;;;;;;9.02;5.28;;;9.60;99.90;;;;;;5107650;28;20043;-65
2022/12/20 11:56:39;;;;;;;8.73;5.13;;;9.60;99.90;;;;;;5098205;28;20036;-64
2022/12/20 11:59:45;;;;;;;8.30;5.30;;;9.60;99.90;;;;;;5102438;28;20028;-65
2022/12/20 12:02:13;;;;;;;6.88;4.95;;;9.60;99.90;;;;;;5026585;28;20133;-65
2022/12/20 12:04:49;;;;;;;10.18;5.75;;;9.60;99.90;;;;;;5093631;28;20054;-64
2022/12/20 12:07:20;;;;;;;11.85;5.32;;;9.60;99.90;;;;;;5088051;28;20070;-66
2022/12/20 12:10:15;;;;;;;11.32;5.15;;;9.60;99.90;;;;;;5108287;28;20040;-64
2022/12/20 12:12:47;;;;;;;9.20;5.35;;;9.60;99.90;;;;;;5105512;28;20040;-65
2022/12/20 12:15:39;;;;;;;9.00;5.43;;;9.60;99.90;;;;;;5103127;28;20059;-66
2022/12/20 12:18:19;;;;;;;8.20;5.00;;;9.60;99.90;;;;;;5104820;28;20382;-64
2022/12/20 12:21:04;;;;;;;9.13;5.72;;;9.60;99.90;;;;;;5107406;28;20044;-66
2022/12/20 12:23:53;;;;;;;10.15;5.65;;;9.60;99.90;;;;;;5098312;28;20062;-65
2022/12/20 12:26:25;;;;;;;10.90;5.32;;;9.60;99.90;;;;;;5095644;28;20043;-67
2022/12/20 12:29:00;;;;;;;9.75;5.72;;;9.60;99.90;;;;;;5101592;28;20118;-66
2022/12/20 12:31:36;;;;;;;8.00;5.75;;;9.60;99.90;;;;;;5099927;28;20047;-66
2022/12/20 12:34:38;;;;;;;7.72;5.65;;;9.70;99.90;;;;;;5099536;28;20046;-64
2022/12/20 12:37:27;;;;;;;10.20;5.65;;;9.60;99.90;;;;;;5087087;28;20035;-64
2022/12/20 12:40:19;;;;;;;9.50;5.78;;;9.60;99.90;;;;;;5098155;28;20043;-65
2022/12/20 12:43:25;;;;;;;10.68;6.70;;;9.60;99.90;;;;;;5101042;28;20035;-64
2022/12/20 12:46:03;;;;;;;12.80;6.20;;;9.60;99.90;;;;;;5110231;28;20043;-65
2022/12/20 12:48:34;;;;;;;12.32;5.78;;;9.60;99.90;;;;;;5101600;28;20044;-66
2022/12/20 12:51:01;;;;;;;13.73;6.57;;;9.60;99.90;;;;;;5095609;28;20105;-63
2022/12/20 12:53:51;;;;;;;9.65;6.28;;;9.60;99.90;;;;;;5091053;28;20081;-67
2022/12/20 12:56:26;;;;;;;9.98;6.20;;;9.70;99.90;;;;;;5089468;28;20473;-65
2022/12/20 12:59:26;;;;;;;12.40;7.00;;;9.70;99.90;;;;;;5087402;28;20044;-66
2022/12/20 13:01:54;;;;;;;12.23;6.88;;;9.70;99.90;;;;;;5073047;28;20495;-66
2022/12/20 13:04:20;;;;;;;12.63;6.78;;;9.70;99.90;;;;;;5070819;28;20085;-65
2022/12/20 13:07:01;;;;;;;11.32;7.07;;;9.60;99.90;;;;;;5091399;28;20419;-65
2022/12/20 13:09:26;;;;;;;12.38;7.78;;;9.60;99.90;;;;;;5089607;28;20146;-65
2022/12/20 13:11:56;;;;;;;15.23;8.00;;;9.70;99.90;;;;;;5088060;28;20244;-65
2022/12/20 13:16:52;;;;;;;13.23;8.50;;;9.70;99.90;;;;;;5092389;28;20089;-65
2022/12/20 13:19:33;;;;;;;13.18;8.13;;;9.70;99.90;;;;;;5094214;28;20044;-64
2022/12/20 13:22:04;;;;;;;14.23;8.05;;;9.70;99.90;;;;;;5101294;28;20028;-65
2022/12/20 13:24:55;;;;;;;16.02;8.80;;;9.60;99.90;;;;;;5106685;28;20039;-64